x

Western Hawaii - 205 Nm Sw Of Honolulu, Hi (51003) Wave Buoy

3:50am - Tue 26th Jul 2016 All times are HST. -10 hours from GMT.

  • Sig Wave height 5.2ft
  • Swell Direction
  • Peak Period 8s
  • Average Period 6s
  • Wind
    11mph, 13mph gusts
  • Sea Temp 82°f
  • Air Temp 81°f
  • Sea Pressure 1013.6mb
  • Western  Hawaii - 205 Nm Sw Of Honolulu, Hi
  • Western  Hawaii - 205 Nm Sw Of Honolulu, Hi

More Historic Weather Station data

Upgrade to MSW Pro to gain access to the past 30 days of data for over 8000 Wavebouys and Weather Stations around the globe.

Join Pro

Comparision Forecast

View Surf forecast
   
Tue 07/26 3:50am 5ft 8s 6s 11 13 mph 1013.6mb 82f 81f
2:50am 5ft 8s 6s 13 16 mph 1013.6mb 82f 81f
1:50am 5ft 7s 6s 16 18 mph 1014mb 82f 81f
12:50am 4.5ft 8s 6s 18 20 mph 1014.6mb 82f 81f
Mon 07/25 11:50pm 5ft 9s 6s 16 20 mph 1014.9mb 82f 82f
10:50pm 5ft 8s 6s 11 13 mph 1015mb 82f 81f
9:50pm 4.5ft 8s 6s 13 16 mph 1014.6mb 83f 81f
8:50pm 4.5ft 8s 7s 18 22 mph 1013.9mb 83f 81f
7:50pm 5ft 7s 7s 9 13 mph 1013.7mb 83f 82f
6:50pm 5ft 9s 7s 11
mph
1013.1mb 83f 82f
5:50pm 4.5ft 7s 7s 11 13 mph 1012.7mb 83f 82f
4:50pm 4.5ft 8s 7s 9 11 mph 1012.3mb 83f 82f
3:50pm 5ft 10s 7s 9 11 mph 1012.5mb 83f 82f
2:50pm 5ft 7s 7s 9 13 mph 1012.9mb 84f 82f
12:50pm 5ft 9s 7s 7 9 mph 1013.7mb 84f 81f
11:50am 5ft 9s 7s 4 7 mph 1014.1mb 84f 81f
10:50am 5ft 8s 7s 2 4 mph 1014.5mb 84f 81f
9:50am 5ft 8s 7s 2 4 mph 1014.5mb 83f 81f
7:50am 5ft 9s 7s 2 4 mph 1013.9mb 82f 81f
6:50am 5ft 7s 7s 2 4 mph 1013.5mb 82f 80f
5:50am 5ft 7s 7s  -  2 mph 1012.9mb 82f 80f
4:50am 5ft 7s 7s 2 4 mph 1012.3mb 82f 80f
3:50am 6ft 8s 7s 2 4 mph 1012.2mb 82f 80f
2:50am 5.5ft 8s 7s 2 4 mph 1012.1mb 82f 80f
1:50am 5ft 7s 7s 2 4 mph 1012.4mb 82f 80f
12:50am 5ft 7s 7s 7
mph
1013.3mb 82f 80f
Sun 07/24 11:50pm 5ft 8s 7s 4 7 mph 1013.7mb 82f 80f
10:50pm 5ft 9s 7s 2 4 mph 1013.7mb 82f 80f
9:50pm 5ft 8s 7s  -  2 mph 1013.2mb 82f 80f
8:50pm 5ft 9s 7s 4 7 mph 1012.3mb 82f 80f
7:50pm 5.5ft 7s 6s 9 11 mph 1011.8mb 82f 79f
6:50pm 6ft 8s 6s 11 13 mph 1011.2mb 82f 80f
5:50pm 6.5ft 7s 7s 11
mph
1010.9mb 82f 80f
4:50pm 6ft 7s 6s 9 11 mph 1010.5mb 82f 80f
3:50pm 7ft 8s 7s 9 11 mph 1010.5mb 82f 80f
2:50pm 6.5ft 8s 6s 11 13 mph 1010.7mb 82f 80f
1:50pm 6ft 8s 7s 11 16 mph 1011.2mb 82f 81f
12:50pm 6ft 8s 7s 13 16 mph 1011.8mb 82f 80f
11:50am 6ft 8s 6s 13 18 mph 1012.1mb 82f 80f
10:50am 7ft 8s 7s 13 18 mph 1012.2mb 82f 80f
9:50am 7ft 8s 6s 16 18 mph 1012.4mb 82f 80f
8:50am 6.5ft 8s 7s 13 18 mph 1012.3mb 82f 80f
7:50am 7ft 7s 7s 16 18 mph 1012.1mb 82f 80f
6:50am 7.5ft 8s 7s 13 18 mph 1011.6mb 81f 80f
5:50am 7.5ft 8s 7s 13 18 mph 1011.2mb 82f 80f
4:50am 7ft 8s 7s 16 18 mph 1011.1mb 82f 80f
3:50am 7ft 8s 6s 18 22 mph 1011mb 82f 79f
2:50am 7ft 8s 6s 18 20 mph 1011.2mb 82f 79f
1:50am 6.5ft 8s 6s 18 22 mph 1011.6mb 82f 78f
12:50am 7ft 8s 6s 20 22 mph 1012.1mb 82f 79f
Sat 07/23 11:50pm 6.5ft 8s 6s 18 20 mph 1012.7mb 82f 80f
10:50pm 7ft 9s 6s 18 22 mph 1013.1mb 82f 79f
9:50pm 7ft 7s 6s 18 22 mph 1012.8mb 82f 80f
8:50pm 7ft 8s 6s 20 22 mph 1012.4mb 82f 80f
7:50pm 7ft 8s 6s 18 20 mph 1012.1mb 82f 80f
6:50pm 8ft 7s 6s 16 18 mph 1011.8mb 82f 80f
5:50pm 6.5ft 8s 6s 16 20 mph 1011.7mb 82f 80f
4:50pm 8ft 7s 7s 16 20 mph 1011.6mb 82f 80f
3:50pm 8ft 8s 7s 18 20 mph 1011.9mb 82f 80f
2:50pm 7.5ft 9s 7s 16 18 mph 1012.4mb 82f 80f
1:50pm 8ft 8s 7s 16 18 mph 1012.7mb 82f 80f
12:50pm 7ft 8s 7s 13 18 mph 1013.3mb 82f 80f
11:50am 8ft 8s 7s 13 16 mph 1013.7mb 82f 80f
10:50am 7.5ft 8s 7s 16 18 mph 1013.9mb 82f 80f
9:50am 8ft 8s 7s 16 18 mph 1013.9mb 81f 80f
8:50am 8ft 9s 7s 16 18 mph 1013.7mb 81f 80f
7:50am 8ft 9s 7s 18 20 mph 1013.2mb 81f 80f
6:50am 8ft 8s 7s 18 20 mph 1012.7mb 81f 80f
5:50am 8ft 8s 7s 18 20 mph 1012.4mb 81f 80f
4:50am 9ft 8s 7s 18 20 mph 1012.4mb 81f 80f
3:50am 8ft 8s 7s 16 18 mph 1012.5mb 81f 80f
2:50am 9ft 8s 7s 16 20 mph 1012.6mb 81f 80f
1:50am 8ft 8s 7s 16 20 mph 1013.1mb 81f 80f
12:50am 8ft 8s 7s 18 20 mph 1013.5mb 81f 80f
Fri 07/22 11:50pm 8ft 9s 7s 18 20 mph 1014mb 81f 80f
10:50pm 8ft 9s 7s 20 22 mph 1014.3mb 81f 80f
9:50pm 8.5ft 8s 7s 18 22 mph 1013.9mb 81f 80f
8:50pm 8ft 8s 7s 20 25 mph 1013.3mb 81f 80f
7:50pm 8ft 8s 7s 20 22 mph 1012.8mb 82f 80f
6:50pm 8ft 9s 7s 18 22 mph 1012.4mb 82f 80f
5:50pm 8ft 8s 7s 18 22 mph 1012.3mb 82f 81f
4:50pm 8.5ft 8s 7s 20 22 mph 1012.2mb 82f 80f
3:50pm 8ft 8s 7s 20 22 mph 1012.6mb 82f 80f
2:50pm 8ft 9s 7s 18 22 mph 1013.3mb 82f 80f